sensor_id;sensor_type;location;lat;lon;timestamp;pressure;altitude;pressure_sealevel;temperature;humidity
10668;BME280;5382;42.136;24.796;2022-12-18T00:00:46;100530.50;;;9.60;100.00
10668;BME280;5382;42.136;24.796;2022-12-18T00:03:14;100529.59;;;9.76;100.00
10668;BME280;5382;42.136;24.796;2022-12-18T00:05:46;100521.38;;;9.80;100.00
10668;BME280;5382;42.136;24.796;2022-12-18T00:08:13;100524.34;;;9.90;100.00
10668;BME280;5382;42.136;24.796;2022-12-18T00:10:41;100516.50;;;9.89;100.00
10668;BME280;5382;42.136;24.796;2022-12-18T00:13:08;100520.84;;;9.90;100.00
10668;BME280;5382;42.136;24.796;2022-12-18T00:15:35;100545.84;;;9.84;100.00
10668;BME280;5382;42.136;24.796;2022-12-18T00:18:02;100545.97;;;9.67;100.00
10668;BME280;5382;42.136;24.796;2022-12-18T00:20:29;100562.78;;;9.66;100.00
10668;BME280;5382;42.136;24.796;2022-12-18T00:25:42;100581.28;;;9.66;100.00
10668;BME280;5382;42.136;24.796;2022-12-18T00:28:09;100590.97;;;9.81;100.00
10668;BME280;5382;42.136;24.796;2022-12-18T00:30:36;100584.16;;;9.77;100.00
10668;BME280;5382;42.136;24.796;2022-12-18T00:33:03;100588.03;;;9.86;100.00
10668;BME280;5382;42.136;24.796;2022-12-18T00:35:30;100590.28;;;9.77;100.00
10668;BME280;5382;42.136;24.796;2022-12-18T00:37:57;100596.50;;;9.76;100.00
10668;BME280;5382;42.136;24.796;2022-12-18T00:40:24;100595.41;;;9.65;100.00
10668;BME280;5382;42.136;24.796;2022-12-18T00:42:52;100615.69;;;9.64;100.00
10668;BME280;5382;42.136;24.796;2022-12-18T00:45:22;100602.69;;;9.45;100.00
10668;BME280;5382;42.136;24.796;2022-12-18T00:47:49;100614.53;;;9.38;100.00
10668;BME280;5382;42.136;24.796;2022-12-18T00:50:16;100620.22;;;9.30;100.00
10668;BME280;5382;42.136;24.796;2022-12-18T00:52:42;100608.53;;;9.34;100.00
10668;BME280;5382;42.136;24.796;2022-12-18T00:55:10;100614.41;;;9.39;100.00
10668;BME280;5382;42.136;24.796;2022-12-18T00:57:37;100613.81;;;9.34;100.00
10668;BME280;5382;42.136;24.796;2022-12-18T01:00:07;100609.56;;;9.32;100.00
10668;BME280;5382;42.136;24.796;2022-12-18T01:02:35;100607.88;;;9.31;100.00
10668;BME280;5382;42.136;24.796;2022-12-18T01:05:01;100608.53;;;9.18;100.00
10668;BME280;5382;42.136;24.796;2022-12-18T01:07:28;100607.88;;;9.15;100.00
10668;BME280;5382;42.136;24.796;2022-12-18T01:09:55;100613.16;;;9.15;100.00
10668;BME280;5382;42.136;24.796;2022-12-18T01:12:22;100609.41;;;9.19;100.00
10668;BME280;5382;42.136;24.796;2022-12-18T01:14:49;100609.25;;;9.22;100.00
10668;BME280;5382;42.136;24.796;2022-12-18T01:17:17;100604.22;;;9.33;100.00
10668;BME280;5382;42.136;24.796;2022-12-18T01:19:44;100603.25;;;9.34;100.00
10668;BME280;5382;42.136;24.796;2022-12-18T01:22:11;100611.78;;;9.39;100.00
10668;BME280;5382;42.136;24.796;2022-12-18T01:24:37;100605.66;;;9.39;100.00
10668;BME280;5382;42.136;24.796;2022-12-18T01:27:04;100600.72;;;9.49;100.00
10668;BME280;5382;42.136;24.796;2022-12-18T01:29:31;100605.22;;;9.63;100.00
10668;BME280;5382;42.136;24.796;2022-12-18T01:31:58;100633.78;;;9.72;100.00
10668;BME280;5382;42.136;24.796;2022-12-18T01:34:26;100612.25;;;9.78;100.00
10668;BME280;5382;42.136;24.796;2022-12-18T01:36:53;100608.69;;;9.79;100.00
10668;BME280;5382;42.136;24.796;2022-12-18T01:39:20;100609.78;;;9.91;100.00
10668;BME280;5382;42.136;24.796;2022-12-18T01:41:47;100604.88;;;9.99;100.00
10668;BME280;5382;42.136;24.796;2022-12-18T01:44:54;100600.63;;;10.12;100.00
10668;BME280;5382;42.136;24.796;2022-12-18T01:47:24;100598.63;;;10.16;100.00
10668;BME280;5382;42.136;24.796;2022-12-18T01:49:54;100595.59;;;10.22;100.00
10668;BME280;5382;42.136;24.796;2022-12-18T01:52:21;100570.38;;;10.16;100.00
10668;BME280;5382;42.136;24.796;2022-12-18T01:54:50;100600.91;;;10.38;100.00
10668;BME280;5382;42.136;24.796;2022-12-18T01:57:17;100590.66;;;10.32;100.00
10668;BME280;5382;42.136;24.796;2022-12-18T01:59:46;100606.53;;;10.32;100.00
10668;BME280;5382;42.136;24.796;2022-12-18T02:02:16;100606.97;;;10.24;100.00
10668;BME280;5382;42.136;24.796;2022-12-18T02:04:43;100616.28;;;10.31;100.00
10668;BME280;5382;42.136;24.796;2022-12-18T02:07:16;100614.66;;;10.29;100.00
10668;BME280;5382;42.136;24.796;2022-12-18T02:09:46;100624.97;;;10.33;100.00
10668;BME280;5382;42.136;24.796;2022-12-18T02:12:18;100623.94;;;10.36;100.00
10668;BME280;5382;42.136;24.796;2022-12-18T02:14:52;100607.91;;;10.23;100.00
10668;BME280;5382;42.136;24.796;2022-12-18T02:17:23;100627.34;;;10.38;100.00
10668;BME280;5382;42.136;24.796;2022-12-18T02:20:05;100643.03;;;10.41;100.00
10668;BME280;5382;42.136;24.796;2022-12-18T02:22:43;100637.63;;;10.42;100.00
10668;BME280;5382;42.136;24.796;2022-12-18T02:25:28;100638.91;;;10.51;100.00
10668;BME280;5382;42.136;24.796;2022-12-18T02:28:02;100625.75;;;10.50;100.00
10668;BME280;5382;42.136;24.796;2022-12-18T02:30:31;100640.78;;;10.63;100.00
10668;BME280;5382;42.136;24.796;2022-12-18T02:33:01;100638.06;;;10.65;100.00
10668;BME280;5382;42.136;24.796;2022-12-18T02:35:30;100631.53;;;10.70;100.00
10668;BME280;5382;42.136;24.796;2022-12-18T02:37:58;100631.81;;;10.66;100.00
10668;BME280;5382;42.136;24.796;2022-12-18T02:40:27;100610.25;;;10.58;100.00
10668;BME280;5382;42.136;24.796;2022-12-18T02:42:54;100630.69;;;10.70;100.00
10668;BME280;5382;42.136;24.796;2022-12-18T02:45:22;100631.81;;;10.66;100.00
10668;BME280;5382;42.136;24.796;2022-12-18T02:47:50;100628.31;;;10.65;100.00
10668;BME280;5382;42.136;24.796;2022-12-18T02:50:22;100616.75;;;10.22;100.00
10668;BME280;5382;42.136;24.796;2022-12-18T02:52:59;100632.97;;;10.32;100.00
10668;BME280;5382;42.136;24.796;2022-12-18T02:55:36;100628.94;;;10.10;100.00
10668;BME280;5382;42.136;24.796;2022-12-18T02:58:13;100632.19;;;9.99;100.00
10668;BME280;5382;42.136;24.796;2022-12-18T03:00:47;100644.97;;;9.91;100.00
10668;BME280;5382;42.136;24.796;2022-12-18T03:03:19;100641.69;;;9.88;100.00
10668;BME280;5382;42.136;24.796;2022-12-18T03:05:52;100641.50;;;9.75;100.00
10668;BME280;5382;42.136;24.796;2022-12-18T03:08:22;100647.59;;;9.61;100.00
10668;BME280;5382;42.136;24.796;2022-12-18T03:10:54;100645.63;;;9.49;100.00
10668;BME280;5382;42.136;24.796;2022-12-18T03:13:26;100648.69;;;9.41;100.00
10668;BME280;5382;42.136;24.796;2022-12-18T03:15:56;100650.31;;;9.44;100.00
10668;BME280;5382;42.136;24.796;2022-12-18T03:18:28;100648.69;;;9.57;100.00
10668;BME280;5382;42.136;24.796;2022-12-18T03:20:58;100651.50;;;9.70;100.00
10668;BME280;5382;42.136;24.796;2022-12-18T03:23:30;100651.66;;;9.82;100.00
10668;BME280;5382;42.136;24.796;2022-12-18T03:26:10;100656.44;;;9.92;100.00
10668;BME280;5382;42.136;24.796;2022-12-18T03:28:43;100644.66;;;9.97;100.00
10668;BME280;5382;42.136;24.796;2022-12-18T03:31:14;100656.47;;;10.06;100.00
10668;BME280;5382;42.136;24.796;2022-12-18T03:33:45;100663.13;;;10.13;100.00
10668;BME280;5382;42.136;24.796;2022-12-18T03:36:12;100659.25;;;10.19;100.00
10668;BME280;5382;42.136;24.796;2022-12-18T03:38:40;100663.44;;;10.23;100.00
10668;BME280;5382;42.136;24.796;2022-12-18T03:41:14;100663.63;;;10.20;100.00
10668;BME280;5382;42.136;24.796;2022-12-18T03:43:47;100677.88;;;10.33;100.00
10668;BME280;5382;42.136;24.796;2022-12-18T03:46:25;100687.44;;;10.36;100.00
10668;BME280;5382;42.136;24.796;2022-12-18T03:49:01;100691.69;;;10.38;100.00
10668;BME280;5382;42.136;24.796;2022-12-18T03:51:38;100693.13;;;10.44;100.00
10668;BME280;5382;42.136;24.796;2022-12-18T03:54:06;100699.19;;;10.46;100.00
10668;BME280;5382;42.136;24.796;2022-12-18T03:56:37;100693.59;;;10.51;100.00
10668;BME280;5382;42.136;24.796;2022-12-18T03:59:06;100704.03;;;10.54;100.00
10668;BME280;5382;42.136;24.796;2022-12-18T04:01:38;100705.63;;;10.56;100.00
10668;BME280;5382;42.136;24.796;2022-12-18T04:04:06;100705.34;;;10.61;100.00
10668;BME280;5382;42.136;24.796;2022-12-18T04:06:35;100717.72;;;10.60;100.00
10668;BME280;5382;42.136;24.796;2022-12-18T04:09:03;100691.13;;;10.47;100.00
10668;BME280;5382;42.136;24.796;2022-12-18T04:11:30;100713.97;;;10.64;100.00
10668;BME280;5382;42.136;24.796;2022-12-18T04:13:58;100709.13;;;10.57;100.00
10668;BME280;5382;42.136;24.796;2022-12-18T04:16:25;100718.69;;;10.59;100.00
10668;BME280;5382;42.136;24.796;2022-12-18T04:18:53;100714.75;;;10.66;100.00
10668;BME280;5382;42.136;24.796;2022-12-18T04:21:20;100677.44;;;10.41;100.00
10668;BME280;5382;42.136;24.796;2022-12-18T04:23:48;100707.84;;;10.64;100.00
10668;BME280;5382;42.136;24.796;2022-12-18T04:26:14;100722.69;;;10.66;100.00
10668;BME280;5382;42.136;24.796;2022-12-18T04:28:41;100712.09;;;10.66;100.00
10668;BME280;5382;42.136;24.796;2022-12-18T04:31:08;100709.13;;;10.57;100.00
10668;BME280;5382;42.136;24.796;2022-12-18T04:33:35;100720.03;;;10.66;100.00
10668;BME280;5382;42.136;24.796;2022-12-18T04:36:04;100724.06;;;10.58;100.00
10668;BME280;5382;42.136;24.796;2022-12-18T04:38:31;100726.63;;;10.59;100.00
10668;BME280;5382;42.136;24.796;2022-12-18T04:40:58;100714.88;;;10.49;100.00
10668;BME280;5382;42.136;24.796;2022-12-18T04:43:24;100733.28;;;10.51;100.00
10668;BME280;5382;42.136;24.796;2022-12-18T04:45:51;100747.72;;;10.45;100.00
10668;BME280;5382;42.136;24.796;2022-12-18T04:48:18;100752.44;;;10.40;100.00
10668;BME280;5382;42.136;24.796;2022-12-18T04:50:46;100747.56;;;10.32;100.00
10668;BME280;5382;42.136;24.796;2022-12-18T04:53:14;100753.06;;;10.29;100.00
10668;BME280;5382;42.136;24.796;2022-12-18T04:55:41;100764.72;;;10.25;100.00
10668;BME280;5382;42.136;24.796;2022-12-18T04:58:08;100758.75;;;10.21;100.00
10668;BME280;5382;42.136;24.796;2022-12-18T05:00:35;100767.88;;;10.16;100.00
10668;BME280;5382;42.136;24.796;2022-12-18T05:03:02;100761.16;;;10.10;100.00
10668;BME280;5382;42.136;24.796;2022-12-18T05:05:29;100781.59;;;10.07;100.00
10668;BME280;5382;42.136;24.796;2022-12-18T05:07:55;100787.06;;;10.03;100.00
10668;BME280;5382;42.136;24.796;2022-12-18T05:10:23;100778.47;;;10.00;100.00
10668;BME280;5382;42.136;24.796;2022-12-18T05:12:50;100796.81;;;10.03;100.00
10668;BME280;5382;42.136;24.796;2022-12-18T05:15:28;100718.75;;;9.64;100.00
10668;BME280;5382;42.136;24.796;2022-12-18T05:17:55;100785.69;;;9.96;100.00
10668;BME280;5382;42.136;24.796;2022-12-18T05:20:23;100750.03;;;9.56;100.00
10668;BME280;5382;42.136;24.796;2022-12-18T05:22:50;100818.63;;;9.91;100.00
10668;BME280;5382;42.136;24.796;2022-12-18T05:25:17;100810.63;;;9.92;100.00
10668;BME280;5382;42.136;24.796;2022-12-18T05:27:46;100818.44;;;9.94;100.00
10668;BME280;5382;42.136;24.796;2022-12-18T05:30:14;100827.09;;;9.97;100.00
10668;BME280;5382;42.136;24.796;2022-12-18T05:32:42;100813.00;;;9.97;100.00
10668;BME280;5382;42.136;24.796;2022-12-18T05:35:10;100803.50;;;9.77;100.00
10668;BME280;5382;42.136;24.796;2022-12-18T05:37:37;100837.31;;;10.03;100.00
10668;BME280;5382;42.136;24.796;2022-12-18T05:40:05;100837.31;;;10.03;100.00
10668;BME280;5382;42.136;24.796;2022-12-18T05:42:32;100837.56;;;9.99;100.00
10668;BME280;5382;42.136;24.796;2022-12-18T05:45:00;100853.34;;;10.00;100.00
10668;BME280;5382;42.136;24.796;2022-12-18T05:47:27;100852.50;;;10.00;100.00
10668;BME280;5382;42.136;24.796;2022-12-18T05:49:54;100865.72;;;10.00;100.00
10668;BME280;5382;42.136;24.796;2022-12-18T05:52:21;100855.31;;;9.97;100.00
10668;BME280;5382;42.136;24.796;2022-12-18T05:54:48;100861.97;;;10.04;100.00
10668;BME280;5382;42.136;24.796;2022-12-18T05:57:15;100857.00;;;9.98;100.00
10668;BME280;5382;42.136;24.796;2022-12-18T05:59:41;100872.88;;;9.98;100.00
10668;BME280;5382;42.136;24.796;2022-12-18T06:02:10;100877.22;;;9.99;100.00
10668;BME280;5382;42.136;24.796;2022-12-18T06:04:36;100886.88;;;10.00;100.00
10668;BME280;5382;42.136;24.796;2022-12-18T06:07:03;100837.19;;;9.73;100.00
10668;BME280;5382;42.136;24.796;2022-12-18T06:09:30;100874.84;;;9.94;100.00
10668;BME280;5382;42.136;24.796;2022-12-18T06:11:57;100879.97;;;9.97;100.00
10668;BME280;5382;42.136;24.796;2022-12-18T06:14:24;100880.63;;;10.01;100.00
10668;BME280;5382;42.136;24.796;2022-12-18T06:16:51;100892.00;;;10.03;100.00
10668;BME280;5382;42.136;24.796;2022-12-18T06:19:19;100884.84;;;10.05;100.00
10668;BME280;5382;42.136;24.796;2022-12-18T06:21:46;100892.44;;;10.11;100.00
10668;BME280;5382;42.136;24.796;2022-12-18T06:24:14;100901.13;;;10.13;100.00
10668;BME280;5382;42.136;24.796;2022-12-18T06:26:41;100895.84;;;10.13;100.00
10668;BME280;5382;42.136;24.796;2022-12-18T06:29:08;100905.34;;;10.17;100.00
10668;BME280;5382;42.136;24.796;2022-12-18T06:31:35;100920.44;;;10.15;100.00
10668;BME280;5382;42.136;24.796;2022-12-18T06:34:02;100917.44;;;10.21;100.00
10668;BME280;5382;42.136;24.796;2022-12-18T06:36:31;100936.56;;;10.26;100.00
10668;BME280;5382;42.136;24.796;2022-12-18T06:38:58;100934.03;;;10.25;100.00
10668;BME280;5382;42.136;24.796;2022-12-18T06:41:25;100931.91;;;10.32;100.00
10668;BME280;5382;42.136;24.796;2022-12-18T06:43:52;100935.34;;;10.34;100.00
10668;BME280;5382;42.136;24.796;2022-12-18T06:46:20;100939.69;;;10.35;100.00
10668;BME280;5382;42.136;24.796;2022-12-18T06:48:48;100971.44;;;10.35;100.00
10668;BME280;5382;42.136;24.796;2022-12-18T06:51:17;100945.84;;;10.35;100.00
10668;BME280;5382;42.136;24.796;2022-12-18T06:53:45;100963.06;;;10.42;100.00
10668;BME280;5382;42.136;24.796;2022-12-18T06:56:12;100958.75;;;10.41;100.00
10668;BME280;5382;42.136;24.796;2022-12-18T06:58:39;100967.53;;;10.42;100.00
10668;BME280;5382;42.136;24.796;2022-12-18T07:01:07;100994.84;;;10.42;100.00
10668;BME280;5382;42.136;24.796;2022-12-18T07:03:34;100969.38;;;10.40;100.00
10668;BME280;5382;42.136;24.796;2022-12-18T07:06:01;100967.53;;;10.42;100.00
10668;BME280;5382;42.136;24.796;2022-12-18T07:08:29;100969.16;;;10.44;100.00
10668;BME280;5382;42.136;24.796;2022-12-18T07:10:58;100978.72;;;10.47;100.00
10668;BME280;5382;42.136;24.796;2022-12-18T07:13:26;100977.44;;;10.54;100.00
10668;BME280;5382;42.136;24.796;2022-12-18T07:15:52;100982.41;;;10.60;100.00
10668;BME280;5382;42.136;24.796;2022-12-18T07:18:20;100982.75;;;10.54;100.00
10668;BME280;5382;42.136;24.796;2022-12-18T07:20:47;100990.94;;;10.50;100.00
10668;BME280;5382;42.136;24.796;2022-12-18T07:23:14;100977.69;;;10.50;100.00
10668;BME280;5382;42.136;24.796;2022-12-18T07:25:41;100960.16;;;10.31;100.00
10668;BME280;5382;42.136;24.796;2022-12-18T07:28:09;100998.34;;;10.43;100.00
10668;BME280;5382;42.136;24.796;2022-12-18T07:30:38;101000.63;;;10.33;100.00
10668;BME280;5382;42.136;24.796;2022-12-18T07:33:04;100999.78;;;10.33;100.00
10668;BME280;5382;42.136;24.796;2022-12-18T07:35:32;100997.22;;;10.31;100.00
10668;BME280;5382;42.136;24.796;2022-12-18T07:37:59;100999.06;;;10.29;100.00
10668;BME280;5382;42.136;24.796;2022-12-18T07:40:26;100999.63;;;10.36;100.00
10668;BME280;5382;42.136;24.796;2022-12-18T07:42:52;101010.38;;;10.33;100.00
10668;BME280;5382;42.136;24.796;2022-12-18T07:45:21;100999.16;;;10.28;100.00
10668;BME280;5382;42.136;24.796;2022-12-18T07:47:47;101007.72;;;10.33;100.00
10668;BME280;5382;42.136;24.796;2022-12-18T07:50:14;101017.34;;;10.34;100.00
10668;BME280;5382;42.136;24.796;2022-12-18T07:52:41;101009.00;;;10.41;100.00
10668;BME280;5382;42.136;24.796;2022-12-18T07:55:08;101010.03;;;10.39;100.00
10668;BME280;5382;42.136;24.796;2022-12-18T07:57:35;101023.88;;;10.44;100.00
10668;BME280;5382;42.136;24.796;2022-12-18T08:00:02;101034.28;;;10.47;100.00
10668;BME280;5382;42.136;24.796;2022-12-18T08:02:31;101032.31;;;10.51;100.00
10668;BME280;5382;42.136;24.796;2022-12-18T08:04:58;101031.63;;;10.47;100.00
10668;BME280;5382;42.136;24.796;2022-12-18T08:07:25;100997.75;;;10.20;100.00
10668;BME280;5382;42.136;24.796;2022-12-18T08:09:51;101044.19;;;10.43;100.00
10668;BME280;5382;42.136;24.796;2022-12-18T08:12:18;101032.22;;;10.36;100.00
10668;BME280;5382;42.136;24.796;2022-12-18T08:14:45;101052.97;;;10.44;100.00
10668;BME280;5382;42.136;24.796;2022-12-18T08:17:12;101055.28;;;10.50;100.00
10668;BME280;5382;42.136;24.796;2022-12-18T08:19:43;101050.41;;;10.42;100.00
10668;BME280;5382;42.136;24.796;2022-12-18T08:22:09;101043.00;;;10.49;100.00
10668;BME280;5382;42.136;24.796;2022-12-18T08:24:36;101061.97;;;10.57;100.00
10668;BME280;5382;42.136;24.796;2022-12-18T08:27:03;101071.47;;;10.61;100.00
10668;BME280;5382;42.136;24.796;2022-12-18T08:29:30;101063.94;;;10.54;100.00
10668;BME280;5382;42.136;24.796;2022-12-18T08:31:57;101067.88;;;10.62;100.00
10668;BME280;5382;42.136;24.796;2022-12-18T08:34:24;101069.50;;;10.65;100.00
10668;BME280;5382;42.136;24.796;2022-12-18T08:36:53;101064.28;;;10.63;100.00
10668;BME280;5382;42.136;24.796;2022-12-18T08:39:20;101056.19;;;10.66;100.00
10668;BME280;5382;42.136;24.796;2022-12-18T08:41:47;101062.34;;;10.67;100.00
10668;BME280;5382;42.136;24.796;2022-12-18T08:44:34;101057.25;;;10.80;100.00
10668;BME280;5382;42.136;24.796;2022-12-18T08:47:03;101051.84;;;10.81;100.00
10668;BME280;5382;42.136;24.796;2022-12-18T08:49:30;101054.66;;;10.78;100.00
10668;BME280;5382;42.136;24.796;2022-12-18T08:51:58;101059.66;;;10.84;100.00
10668;BME280;5382;42.136;24.796;2022-12-18T08:54:25;101055.81;;;10.90;100.00
10668;BME280;5382;42.136;24.796;2022-12-18T08:56:52;101048.94;;;10.86;100.00
10668;BME280;5382;42.136;24.796;2022-12-18T08:59:19;101057.06;;;10.83;100.00
10668;BME280;5382;42.136;24.796;2022-12-18T09:01:46;101038.97;;;10.91;100.00
10668;BME280;5382;42.136;24.796;2022-12-18T09:04:13;101035.53;;;10.89;100.00
10668;BME280;5382;42.136;24.796;2022-12-18T09:06:40;101045.03;;;11.09;100.00
10668;BME280;5382;42.136;24.796;2022-12-18T09:09:09;101039.50;;;11.13;100.00
10668;BME280;5382;42.136;24.796;2022-12-18T09:11:36;101045.47;;;11.17;100.00
10668;BME280;5382;42.136;24.796;2022-12-18T09:14:03;101049.97;;;11.15;100.00
10668;BME280;5382;42.136;24.796;2022-12-18T09:16:30;101054.25;;;11.18;100.00
10668;BME280;5382;42.136;24.796;2022-12-18T09:19:02;101043.41;;;11.06;100.00
10668;BME280;5382;42.136;24.796;2022-12-18T09:21:32;101049.84;;;11.02;100.00
10668;BME280;5382;42.136;24.796;2022-12-18T09:23:59;101044.78;;;10.98;100.00
10668;BME280;5382;42.136;24.796;2022-12-18T09:26:27;101044.25;;;10.91;100.00
10668;BME280;5382;42.136;24.796;2022-12-18T09:28:54;101059.66;;;11.00;100.00
10668;BME280;5382;42.136;24.796;2022-12-18T09:31:22;101024.25;;;10.69;100.00
10668;BME280;5382;42.136;24.796;2022-12-18T09:33:49;101049.47;;;10.93;100.00
10668;BME280;5382;42.136;24.796;2022-12-18T09:36:16;101055.38;;;10.82;100.00
10668;BME280;5382;42.136;24.796;2022-12-18T09:38:44;101061.59;;;10.81;100.00
10668;BME280;5382;42.136;24.796;2022-12-18T09:41:33;101062.13;;;10.87;100.00
10668;BME280;5382;42.136;24.796;2022-12-18T09:44:11;101046.13;;;10.73;100.00
10668;BME280;5382;42.136;24.796;2022-12-18T09:46:43;101049.19;;;10.81;100.00
10668;BME280;5382;42.136;24.796;2022-12-18T09:49:14;101057.13;;;10.81;100.00
10668;BME280;5382;42.136;24.796;2022-12-18T09:51:45;101043.66;;;10.86;100.00
10668;BME280;5382;42.136;24.796;2022-12-18T09:54:18;101061.94;;;10.90;100.00
10668;BME280;5382;42.136;24.796;2022-12-18T09:56:47;101057.59;;;10.89;100.00
10668;BME280;5382;42.136;24.796;2022-12-18T09:59:21;101065.28;;;10.94;100.00
10668;BME280;5382;42.136;24.796;2022-12-18T10:01:50;101057.59;;;10.89;100.00
10668;BME280;5382;42.136;24.796;2022-12-18T10:04:16;101046.13;;;10.89;100.00
10668;BME280;5382;42.136;24.796;2022-12-18T10:06:48;101056.16;;;11.00;100.00
10668;BME280;5382;42.136;24.796;2022-12-18T10:09:24;101047.00;;;11.05;100.00
10668;BME280;5382;42.136;24.796;2022-12-18T10:12:02;101053.59;;;10.98;100.00
10668;BME280;5382;42.136;24.796;2022-12-18T10:14:39;101053.22;;;11.04;100.00
10668;BME280;5382;42.136;24.796;2022-12-18T10:17:14;101052.81;;;10.96;100.00
10668;BME280;5382;42.136;24.796;2022-12-18T10:19:49;101053.41;;;11.01;100.00
10668;BME280;5382;42.136;24.796;2022-12-18T10:22:29;101067.69;;;10.99;100.00
10668;BME280;5382;42.136;24.796;2022-12-18T10:25:05;101069.72;;;10.94;100.00
10668;BME280;5382;42.136;24.796;2022-12-18T10:27:40;101067.19;;;10.92;100.00
10668;BME280;5382;42.136;24.796;2022-12-18T10:30:14;101056.72;;;10.89;100.00
10668;BME280;5382;42.136;24.796;2022-12-18T10:32:41;101055.03;;;10.88;100.00
10668;BME280;5382;42.136;24.796;2022-12-18T10:35:16;101050.25;;;10.95;100.00
10668;BME280;5382;42.136;24.796;2022-12-18T10:38:04;101059.84;;;10.97;100.00
10668;BME280;5382;42.136;24.796;2022-12-18T10:40:31;101062.91;;;11.05;100.00
10668;BME280;5382;42.136;24.796;2022-12-18T10:43:11;101062.13;;;11.03;100.00
10668;BME280;5382;42.136;24.796;2022-12-18T10:45:40;101067.94;;;11.10;100.00
10668;BME280;5382;42.136;24.796;2022-12-18T10:48:18;101078.44;;;11.11;100.00
10668;BME280;5382;42.136;24.796;2022-12-18T10:50:48;101080.06;;;10.98;100.00
10668;BME280;5382;42.136;24.796;2022-12-18T10:53:19;101071.34;;;10.80;100.00
10668;BME280;5382;42.136;24.796;2022-12-18T10:55:48;101090.06;;;10.93;100.00
10668;BME280;5382;42.136;24.796;2022-12-18T10:58:23;101102.69;;;10.88;100.00
10668;BME280;5382;42.136;24.796;2022-12-18T11:01:08;101090.81;;;10.79;100.00
10668;BME280;5382;42.136;24.796;2022-12-18T11:03:37;101098.03;;;10.76;100.00
10668;BME280;5382;42.136;24.796;2022-12-18T11:06:07;101109.25;;;10.81;100.00
10668;BME280;5382;42.136;24.796;2022-12-18T11:08:34;101102.56;;;10.74;100.00
10668;BME280;5382;42.136;24.796;2022-12-18T11:11:02;101112.25;;;10.57;100.00
10668;BME280;5382;42.136;24.796;2022-12-18T11:13:31;101047.28;;;10.17;100.00
10668;BME280;5382;42.136;24.796;2022-12-18T11:15:58;101094.31;;;10.29;100.00
10668;BME280;5382;42.136;24.796;2022-12-18T11:18:27;101101.44;;;10.27;100.00
10668;BME280;5382;42.136;24.796;2022-12-18T11:20:56;101043.81;;;9.81;100.00
10668;BME280;5382;42.136;24.796;2022-12-18T11:23:24;101097.41;;;10.02;100.00
10668;BME280;5382;42.136;24.796;2022-12-18T11:25:55;101106.81;;;10.08;100.00
10668;BME280;5382;42.136;24.796;2022-12-18T11:28:28;101105.19;;;10.05;100.00
10668;BME280;5382;42.136;24.796;2022-12-18T11:31:25;101110.69;;;10.01;100.00
10668;BME280;5382;42.136;24.796;2022-12-18T11:33:57;101091.72;;;9.93;100.00
10668;BME280;5382;42.136;24.796;2022-12-18T11:36:29;101073.19;;;9.75;100.00
10668;BME280;5382;42.136;24.796;2022-12-18T11:39:03;101112.53;;;9.99;100.00
10668;BME280;5382;42.136;24.796;2022-12-18T11:41:36;101104.00;;;9.94;100.00
10668;BME280;5382;42.136;24.796;2022-12-18T11:44:32;101104.31;;;9.88;100.00
10668;BME280;5382;42.136;24.796;2022-12-18T11:47:09;101110.53;;;9.87;100.00
10668;BME280;5382;42.136;24.796;2022-12-18T11:49:39;101107.91;;;9.87;100.00
10668;BME280;5382;42.136;24.796;2022-12-18T11:52:16;101106.88;;;9.89;100.00
10668;BME280;5382;42.136;24.796;2022-12-18T11:54:44;101118.22;;;9.91;100.00
10668;BME280;5382;42.136;24.796;2022-12-18T11:57:18;101106.88;;;9.89;100.00
10668;BME280;5382;42.136;24.796;2022-12-18T11:59:55;101115.56;;;9.91;100.00
10668;BME280;5382;42.136;24.796;2022-12-18T12:02:40;101116.06;;;9.99;100.00
10668;BME280;5382;42.136;24.796;2022-12-18T12:05:31;101053.22;;;9.70;100.00
10668;BME280;5382;42.136;24.796;2022-12-18T12:08:09;101127.97;;;10.08;100.00
10668;BME280;5382;42.136;24.796;2022-12-18T12:10:48;101120.81;;;10.10;100.00
10668;BME280;5382;42.136;24.796;2022-12-18T12:13:26;101119.72;;;10.14;100.00
10668;BME280;5382;42.136;24.796;2022-12-18T12:16:06;101111.25;;;10.08;100.00
10668;BME280;5382;42.136;24.796;2022-12-18T12:18:48;101115.53;;;10.10;100.00
10668;BME280;5382;42.136;24.796;2022-12-18T12:21:19;101108.22;;;10.15;100.00
10668;BME280;5382;42.136;24.796;2022-12-18T12:23:56;101124.00;;;10.17;100.00
10668;BME280;5382;42.136;24.796;2022-12-18T12:26:33;101105.34;;;10.20;100.00
10668;BME280;5382;42.136;24.796;2022-12-18T12:29:16;101124.50;;;10.25;100.00
10668;BME280;5382;42.136;24.796;2022-12-18T12:31:57;101099.66;;;10.10;100.00
10668;BME280;5382;42.136;24.796;2022-12-18T12:34:34;101122.34;;;10.33;100.00
10668;BME280;5382;42.136;24.796;2022-12-18T12:37:16;101130.44;;;10.30;100.00
10668;BME280;5382;42.136;24.796;2022-12-18T12:39:46;101138.16;;;10.16;100.00
10668;BME280;5382;42.136;24.796;2022-12-18T12:42:20;101143.50;;;10.14;100.00
10668;BME280;5382;42.136;24.796;2022-12-18T12:45:14;101148.53;;;10.20;100.00
10668;BME280;5382;42.136;24.796;2022-12-18T12:47:48;101151.06;;;10.22;100.00
10668;BME280;5382;42.136;24.796;2022-12-18T12:50:20;101162.38;;;10.25;100.00
10668;BME280;5382;42.136;24.796;2022-12-18T12:52:51;101083.47;;;9.81;100.00
10668;BME280;5382;42.136;24.796;2022-12-18T12:55:21;101163.28;;;10.24;100.00
10668;BME280;5382;42.136;24.796;2022-12-18T12:57:57;101172.09;;;10.25;100.00
10668;BME280;5382;42.136;24.796;2022-12-18T13:00:29;101171.97;;;10.28;100.00